createdAt,value
2023-05-10T00:00:54.545Z,97503.84
2023-05-10T00:03:23.089Z,97501.47
2023-05-10T00:05:51.239Z,97499.84
2023-05-10T00:08:19.413Z,97500.25
2023-05-10T00:10:47.616Z,97490.78
2023-05-10T00:13:17.442Z,97483.09
2023-05-10T00:15:45.598Z,97478.09
2023-05-10T00:18:13.666Z,97476.69
2023-05-10T00:20:41.845Z,97480.25
2023-05-10T00:23:09.928Z,97485.63
2023-05-10T00:25:38.056Z,97484.16
2023-05-10T00:28:06.503Z,97472.94
2023-05-10T00:30:36.020Z,97475.78
2023-05-10T00:33:04.146Z,97465.41
2023-05-10T00:35:32.392Z,97467.19
2023-05-10T00:38:00.392Z,97458.56
2023-05-10T00:40:29.715Z,97455.16
2023-05-10T00:43:02.228Z,97456.19
2023-05-10T00:45:30.802Z,97452.84
2023-05-10T00:48:01.348Z,97446.97
2023-05-10T00:50:29.468Z,97447.97
2023-05-10T00:52:57.763Z,97444.56
2023-05-10T00:55:26.704Z,97445.91
2023-05-10T00:57:55.375Z,97445.03
2023-05-10T01:00:23.951Z,97444.31
2023-05-10T01:02:52.120Z,97444.50
2023-05-10T01:05:22.238Z,97437.53
2023-05-10T01:07:50.638Z,97432.41
2023-05-10T01:10:19.622Z,97448.19
2023-05-10T01:12:49.352Z,97440.38
2023-05-10T01:15:19.073Z,97431.00
2023-05-10T01:17:49.428Z,97439.81
2023-05-10T01:20:18.400Z,97436.59
2023-05-10T01:23:29.023Z,97425.50
2023-05-10T01:26:26.766Z,97437.03
2023-05-10T01:29:27.513Z,97433.78
2023-05-10T01:32:27.259Z,97433.00
2023-05-10T01:35:02.047Z,97434.09
2023-05-10T01:37:38.350Z,97435.94
2023-05-10T01:40:15.638Z,97430.81
2023-05-10T01:42:52.732Z,97430.97
2023-05-10T01:45:27.329Z,97422.28
2023-05-10T01:48:06.534Z,97419.81
2023-05-10T01:50:37.614Z,97422.53
2023-05-10T01:53:10.200Z,97421.03
2023-05-10T01:55:45.279Z,97424.44
2023-05-10T01:58:17.701Z,97419.13
2023-05-10T02:00:47.718Z,97418.41
2023-05-10T02:03:20.754Z,97415.94
2023-05-10T02:05:51.759Z,97408.09
2023-05-10T02:08:24.945Z,97412.69
2023-05-10T02:10:55.982Z,97405.84
2023-05-10T02:13:27.184Z,97411.16
2023-05-10T02:15:57.446Z,97409.75
2023-05-10T02:18:29.473Z,97407.97
2023-05-10T02:20:58.467Z,97409.84
2023-05-10T02:23:28.405Z,97406.44
2023-05-10T02:25:59.670Z,97411.84
2023-05-10T02:28:29.263Z,97401.47
2023-05-10T02:30:58.327Z,97394.56
2023-05-10T02:33:28.981Z,97408.59
2023-05-10T02:35:58.028Z,97402.59
2023-05-10T02:38:27.643Z,97391.50
2023-05-10T02:40:57.832Z,97395.06
2023-05-10T02:43:27.927Z,97406.53
2023-05-10T02:45:56.212Z,97397.78
2023-05-10T02:48:24.398Z,97401.34
2023-05-10T02:50:57.244Z,97404.03
2023-05-10T02:53:31.892Z,97400.78
2023-05-10T02:56:04.919Z,97401.72
2023-05-10T02:58:33.079Z,97389.66
2023-05-10T03:01:02.118Z,97395.78
2023-05-10T03:03:30.287Z,97401.03
2023-05-10T03:06:00.146Z,97397.78
2023-05-10T03:08:30.439Z,97392.69
2023-05-10T03:11:15.960Z,97399.78
2023-05-10T03:13:51.170Z,97400.66
2023-05-10T03:16:27.679Z,97401.66
2023-05-10T03:19:03.594Z,97405.19
2023-05-10T03:21:34.161Z,97395.69
2023-05-10T03:24:12.952Z,97389.78
2023-05-10T03:26:42.493Z,97397.47
2023-05-10T03:29:16.819Z,97396.91
2023-05-10T03:31:45.420Z,97410.75
2023-05-10T03:34:13.613Z,97403.66
2023-05-10T03:36:43.180Z,97408.00
2023-05-10T03:39:11.751Z,97405.44
2023-05-10T03:41:39.901Z,97406.34
2023-05-10T03:44:07.975Z,97403.72
2023-05-10T03:46:36.304Z,97410.69
2023-05-10T03:49:04.735Z,97402.16
2023-05-10T03:51:32.851Z,97408.84
2023-05-10T03:54:02.461Z,97414.13
2023-05-10T03:56:31.138Z,97395.78
2023-05-10T03:58:59.598Z,97399.09
2023-05-10T04:01:27.859Z,97404.13
2023-05-10T04:03:56.109Z,97401.50
2023-05-10T04:06:24.252Z,97415.16
2023-05-10T04:08:52.776Z,97399.63
2023-05-10T04:11:22.989Z,97407.88
2023-05-10T04:13:51.290Z,97403.41
2023-05-10T04:16:19.459Z,97413.28
2023-05-10T04:18:47.720Z,97422.53
2023-05-10T04:21:16.122Z,97414.16
2023-05-10T04:23:44.178Z,97421.78
2023-05-10T04:26:12.266Z,97418.16
2023-05-10T04:28:41.841Z,97419.34
2023-05-10T04:31:11.941Z,97421.50
2023-05-10T04:33:40.328Z,97422.09
2023-05-10T04:36:08.783Z,97416.97
2023-05-10T04:38:37.182Z,97413.16
2023-05-10T04:41:09.123Z,97418.66
2023-05-10T04:43:37.983Z,97428.06
2023-05-10T04:46:08.377Z,97414.34
2023-05-10T04:48:36.792Z,97419.47
2023-05-10T04:51:05.983Z,97419.84
2023-05-10T04:53:34.233Z,97417.66
2023-05-10T04:56:02.351Z,97428.75
2023-05-10T04:58:30.450Z,97428.03
2023-05-10T05:00:58.579Z,97427.72
2023-05-10T05:03:28.140Z,97429.78
2023-05-10T05:05:56.353Z,97438.06
2023-05-10T05:08:25.095Z,97424.81
2023-05-10T05:10:53.382Z,97426.03
2023-05-10T05:13:21.647Z,97426.38
2023-05-10T05:15:49.999Z,97428.94
2023-05-10T05:18:18.437Z,97425.81
2023-05-10T05:20:48.117Z,97431.38
2023-05-10T05:23:16.287Z,97423.38
2023-05-10T05:25:44.371Z,97434.09
2023-05-10T05:28:12.640Z,97435.09
2023-05-10T05:30:40.715Z,97437.28
2023-05-10T05:33:08.908Z,97441.97
2023-05-10T05:35:37.090Z,97433.19
2023-05-10T05:38:07.235Z,97433.16
2023-05-10T05:40:35.804Z,97442.00
2023-05-10T05:43:04.152Z,97440.16
2023-05-10T05:45:32.243Z,97442.44
2023-05-10T05:48:00.677Z,97454.09
2023-05-10T05:50:28.894Z,97441.72
2023-05-10T05:52:58.142Z,97444.16
2023-05-10T05:55:28.071Z,97440.56
2023-05-10T05:57:56.305Z,97451.50
2023-05-10T06:00:24.463Z,97449.50
2023-05-10T06:02:52.821Z,97446.69
2023-05-10T06:05:21.343Z,97445.28
2023-05-10T06:07:49.462Z,97462.59
2023-05-10T06:10:17.693Z,97456.06
2023-05-10T06:12:47.238Z,97462.00
2023-05-10T06:15:15.951Z,97457.47
2023-05-10T06:17:44.464Z,97463.97
2023-05-10T06:20:14.252Z,97474.16
2023-05-10T06:22:42.337Z,97476.03
2023-05-10T06:25:11.460Z,97474.41
2023-05-10T06:27:39.682Z,97472.31
2023-05-10T06:30:13.484Z,97472.41
2023-05-10T06:32:42.060Z,97468.88
2023-05-10T06:35:11.233Z,97462.22
2023-05-10T06:37:39.453Z,97472.44
2023-05-10T06:40:09.363Z,97470.63
2023-05-10T06:42:37.608Z,97463.69
2023-05-10T06:45:06.742Z,97463.47
2023-05-10T06:47:38.824Z,97460.81
2023-05-10T06:50:08.743Z,97451.97
2023-05-10T06:52:36.994Z,97459.47
2023-05-10T06:55:05.823Z,97460.31
2023-05-10T06:57:34.054Z,97447.31
2023-05-10T07:00:02.399Z,97437.31
2023-05-10T07:02:30.597Z,97444.63
2023-05-10T07:05:02.717Z,97445.19
2023-05-10T07:07:31.629Z,97444.81
2023-05-10T07:09:59.834Z,97438.75
2023-05-10T07:12:28.130Z,97439.53
2023-05-10T07:14:56.509Z,97433.41
2023-05-10T07:17:24.827Z,97437.19
2023-05-10T07:19:53.021Z,97446.28
2023-05-10T07:22:22.554Z,97443.22
2023-05-10T07:24:50.730Z,97444.22
2023-05-10T07:27:18.944Z,97442.28
2023-05-10T07:29:47.228Z,97447.63
2023-05-10T07:32:15.463Z,97450.25
2023-05-10T07:34:43.809Z,97443.34
2023-05-10T07:37:12.623Z,97447.47
2023-05-10T07:39:42.258Z,97450.44
2023-05-10T07:42:10.463Z,97452.19
2023-05-10T07:44:38.564Z,97456.03
2023-05-10T07:47:06.700Z,97458.34
2023-05-10T07:49:34.757Z,97448.69
2023-05-10T07:52:02.773Z,97446.50
2023-05-10T07:54:30.953Z,97447.69
2023-05-10T07:57:00.923Z,97446.31
2023-05-10T07:59:28.951Z,97450.16
2023-05-10T08:01:57.345Z,97447.97
2023-05-10T08:04:25.501Z,97446.63
2023-05-10T08:06:53.574Z,97452.22
2023-05-10T08:09:25.032Z,97449.56
2023-05-10T08:11:53.350Z,97449.22
2023-05-10T08:14:22.899Z,97453.81
2023-05-10T08:16:51.048Z,97449.03
2023-05-10T08:19:20.571Z,97447.50
2023-05-10T08:21:48.598Z,97448.75
2023-05-10T08:24:16.874Z,97456.38
2023-05-10T08:26:45.002Z,97444.97
2023-05-10T08:29:13.190Z,97451.94
2023-05-10T08:31:43.346Z,97445.50
2023-05-10T08:34:11.791Z,97449.78
2023-05-10T08:36:39.854Z,97449.03
2023-05-10T08:39:16.223Z,97453.06
2023-05-10T08:41:55.633Z,97440.19
2023-05-10T08:44:23.853Z,97450.22
2023-05-10T08:46:56.416Z,97444.25
2023-05-10T08:49:27.039Z,97450.78
2023-05-10T08:51:58.103Z,97442.84
2023-05-10T08:54:26.636Z,97446.97
2023-05-10T08:56:55.441Z,97443.94
2023-05-10T08:59:23.668Z,97443.47
2023-05-10T09:01:54.683Z,97447.44
2023-05-10T09:04:23.358Z,97437.06
2023-05-10T09:06:51.790Z,97435.59
2023-05-10T09:09:20.425Z,97435.63
2023-05-10T09:11:48.919Z,97434.59
2023-05-10T09:14:18.441Z,97440.84
2023-05-10T09:16:47.129Z,97440.22
2023-05-10T09:19:17.003Z,97434.34
2023-05-10T09:21:45.650Z,97432.50
2023-05-10T09:24:14.495Z,97426.59
2023-05-10T09:26:50.430Z,97431.56
2023-05-10T09:29:18.797Z,97423.59
2023-05-10T09:31:49.070Z,97424.88
2023-05-10T09:34:23.242Z,97428.94
2023-05-10T09:36:55.874Z,97432.59
2023-05-10T09:39:33.144Z,97424.91
2023-05-10T09:42:04.851Z,97413.75
2023-05-10T09:44:33.574Z,97415.13
2023-05-10T09:47:02.130Z,97410.91
2023-05-10T09:49:32.388Z,97414.03
2023-05-10T09:52:05.559Z,97407.78
2023-05-10T09:54:36.066Z,97414.09
2023-05-10T09:57:04.701Z,97402.28
2023-05-10T09:59:35.999Z,97401.97
2023-05-10T10:02:04.920Z,97404.16
2023-05-10T10:04:34.772Z,97403.72
2023-05-10T10:07:04.945Z,97408.91
2023-05-10T10:09:33.764Z,97400.97
2023-05-10T10:12:02.340Z,97408.53
2023-05-10T10:14:31.127Z,97408.63
2023-05-10T10:17:08.242Z,97397.66
2023-05-10T10:19:38.562Z,97397.13
2023-05-10T10:22:07.102Z,97388.72
2023-05-10T10:24:35.484Z,97385.81
2023-05-10T10:27:16.116Z,97392.72
2023-05-10T10:29:54.731Z,97387.97
2023-05-10T10:32:30.600Z,97379.91
2023-05-10T10:35:01.132Z,97384.91
2023-05-10T10:37:45.328Z,97385.03
2023-05-10T10:40:27.892Z,97367.59
2023-05-10T10:42:56.732Z,97373.00
2023-05-10T10:45:26.011Z,97373.47
2023-05-10T10:48:24.292Z,97368.25
2023-05-10T10:50:59.958Z,97366.13
2023-05-10T10:53:30.213Z,97365.94
2023-05-10T10:56:08.772Z,97370.66
2023-05-10T10:58:37.632Z,97368.50
2023-05-10T11:01:14.406Z,97373.78
2023-05-10T11:03:42.872Z,97361.19
2023-05-10T11:06:12.381Z,97366.00
2023-05-10T11:08:48.840Z,97364.91
2023-05-10T11:11:17.334Z,97358.84
2023-05-10T11:13:49.221Z,97358.81
2023-05-10T11:16:20.954Z,97364.91
2023-05-10T11:18:59.701Z,97363.47
2023-05-10T11:21:29.656Z,97352.94
2023-05-10T11:23:58.854Z,97343.78
2023-05-10T11:26:28.059Z,97347.47
2023-05-10T11:28:57.498Z,97342.88
2023-05-10T11:31:27.992Z,97344.28
2023-05-10T11:33:57.743Z,97343.50
2023-05-10T11:36:27.469Z,97342.03
2023-05-10T11:38:57.953Z,97343.28
2023-05-10T11:41:27.647Z,97331.50
2023-05-10T11:43:57.149Z,97341.16
2023-05-10T11:46:26.921Z,97333.25
2023-05-10T11:48:56.975Z,97331.47
2023-05-10T11:51:25.951Z,97323.44
2023-05-10T11:53:58.127Z,97332.00
2023-05-10T11:56:27.417Z,97335.53
2023-05-10T11:58:56.735Z,97327.44
2023-05-10T12:01:25.449Z,97316.63
2023-05-10T12:03:55.858Z,97329.44
2023-05-10T12:06:24.853Z,97323.81
2023-05-10T12:08:54.734Z,97332.91
2023-05-10T12:11:28.240Z,97325.06
2023-05-10T12:13:57.387Z,97328.44
2023-05-10T12:16:27.584Z,97333.44
2023-05-10T12:18:58.080Z,97335.44
2023-05-10T12:21:27.108Z,97337.97
2023-05-10T12:23:56.992Z,97328.53
2023-05-10T12:26:27.539Z,97332.53
2023-05-10T12:28:55.683Z,97326.63
2023-05-10T12:31:23.902Z,97330.53
2023-05-10T12:33:52.022Z,97335.75
2023-05-10T12:36:26.394Z,97323.88
2023-05-10T12:39:04.805Z,97323.94
2023-05-10T12:41:34.200Z,97333.06
2023-05-10T12:44:02.190Z,97335.00
2023-05-10T12:46:30.560Z,97325.94
2023-05-10T12:49:08.377Z,97326.59
2023-05-10T12:51:37.418Z,97330.91
2023-05-10T12:54:05.992Z,97338.78
2023-05-10T12:56:35.456Z,97336.66
2023-05-10T12:59:03.491Z,97328.88
2023-05-10T13:01:31.618Z,97330.91
2023-05-10T13:04:01.078Z,97337.25
2023-05-10T13:06:29.108Z,97323.38
2023-05-10T13:08:58.638Z,97316.97
2023-05-10T13:11:26.755Z,97327.16
2023-05-10T13:13:56.673Z,97323.28
2023-05-10T13:16:24.760Z,97322.91
2023-05-10T13:18:53.059Z,97319.78
2023-05-10T13:21:21.267Z,97322.78
2023-05-10T13:23:49.328Z,97321.78
2023-05-10T13:26:17.378Z,97317.56
2023-05-10T13:28:47.009Z,97311.09
2023-05-10T13:31:16.684Z,97304.16
2023-05-10T13:33:44.891Z,97315.47
2023-05-10T13:36:13.073Z,97309.53
2023-05-10T13:38:41.139Z,97311.28
2023-05-10T13:41:09.364Z,97305.91
2023-05-10T13:43:37.690Z,97312.38
2023-05-10T13:46:06.014Z,97314.34
2023-05-10T13:48:37.554Z,97303.94
2023-05-10T13:51:07.449Z,97304.38
2023-05-10T13:53:35.596Z,97300.56
2023-05-10T13:56:04.495Z,97303.63
2023-05-10T13:58:32.462Z,97301.34
2023-05-10T14:01:00.697Z,97299.97
2023-05-10T14:03:28.886Z,97301.34
2023-05-10T14:05:58.522Z,97298.13
2023-05-10T14:08:28.179Z,97296.56
2023-05-10T14:10:57.456Z,97289.22
2023-05-10T14:13:26.177Z,97295.38
2023-05-10T14:15:56.028Z,97284.63
2023-05-10T14:18:24.366Z,97296.72
2023-05-10T14:20:52.552Z,97289.19
2023-05-10T14:23:25.049Z,97288.56
2023-05-10T14:25:53.148Z,97286.91
2023-05-10T14:28:21.840Z,97287.34
2023-05-10T14:30:50.166Z,97285.63
2023-05-10T14:33:19.342Z,97285.53
2023-05-10T14:35:47.679Z,97289.19
2023-05-10T14:38:16.341Z,97291.47
2023-05-10T14:40:46.145Z,97277.03
2023-05-10T14:43:14.358Z,97279.84
2023-05-10T14:45:42.571Z,97278.44
2023-05-10T14:48:13.361Z,97282.03
2023-05-10T14:50:41.752Z,97270.56
2023-05-10T14:53:09.848Z,97270.56
2023-05-10T14:55:38.060Z,97274.81
2023-05-10T14:58:07.614Z,97263.19
2023-05-10T15:00:35.859Z,97280.19
2023-05-10T15:03:05.327Z,97276.09
2023-05-10T15:05:34.022Z,97270.88
2023-05-10T15:08:02.771Z,97275.69
2023-05-10T15:10:33.126Z,97268.59
2023-05-10T15:13:02.470Z,97274.66
2023-05-10T15:15:32.145Z,97266.25
2023-05-10T15:18:00.445Z,97281.50
2023-05-10T15:20:28.949Z,97273.81
2023-05-10T15:22:57.167Z,97277.50
2023-05-10T15:25:25.374Z,97263.13
2023-05-10T15:27:53.507Z,97275.09
2023-05-10T15:30:21.834Z,97270.16
2023-05-10T15:32:51.321Z,97266.72
2023-05-10T15:35:19.637Z,97263.56
2023-05-10T15:37:49.618Z,97269.38
2023-05-10T15:40:18.259Z,97268.63
2023-05-10T15:42:46.426Z,97252.53
2023-05-10T15:45:16.394Z,97256.28
2023-05-10T15:47:45.261Z,97261.34
2023-05-10T15:50:15.055Z,97261.13
2023-05-10T15:52:43.487Z,97251.75
2023-05-10T15:55:13.301Z,97245.56
2023-05-10T15:57:42.648Z,97258.53
2023-05-10T16:00:12.762Z,97257.75
2023-05-10T16:02:41.068Z,97253.56
2023-05-10T16:05:10.973Z,97254.75
2023-05-10T16:07:42.045Z,97251.97
2023-05-10T16:10:12.266Z,97249.44
2023-05-10T16:12:40.962Z,97243.53
2023-05-10T16:15:10.437Z,97245.81
2023-05-10T16:17:38.587Z,97256.72
2023-05-10T16:20:08.153Z,97254.75
2023-05-10T16:22:36.866Z,97251.81
2023-05-10T16:25:07.466Z,97259.28
2023-05-10T16:27:35.608Z,97254.78
2023-05-10T16:30:04.185Z,97263.97
2023-05-10T16:32:32.544Z,97249.34
2023-05-10T16:35:01.055Z,97257.78
2023-05-10T16:37:29.478Z,97251.88
2023-05-10T16:39:57.649Z,97269.03
2023-05-10T16:42:28.271Z,97260.59
2023-05-10T16:44:56.485Z,97268.78
2023-05-10T16:47:26.986Z,97256.78
2023-05-10T16:49:55.211Z,97260.91
2023-05-10T16:52:23.947Z,97270.44
2023-05-10T16:54:52.147Z,97268.34
2023-05-10T16:57:20.192Z,97270.00
2023-05-10T16:59:50.136Z,97270.84
2023-05-10T17:02:18.271Z,97275.50
2023-05-10T17:04:46.608Z,97273.22
2023-05-10T17:07:14.935Z,97278.03
2023-05-10T17:09:43.589Z,97275.47
2023-05-10T17:12:12.267Z,97276.59
2023-05-10T17:14:40.429Z,97273.91
2023-05-10T17:17:10.110Z,97281.94
2023-05-10T17:19:38.197Z,97280.38
2023-05-10T17:22:06.411Z,97279.69
2023-05-10T17:24:34.657Z,97282.63
2023-05-10T17:27:03.766Z,97274.31
2023-05-10T17:29:32.191Z,97288.41
2023-05-10T17:32:00.481Z,97283.63
2023-05-10T17:34:31.516Z,97293.63
2023-05-10T17:36:59.658Z,97291.34
2023-05-10T17:39:27.767Z,97295.41
2023-05-10T17:41:55.977Z,97294.81
2023-05-10T17:44:25.549Z,97290.16
2023-05-10T17:46:53.698Z,97303.56
2023-05-10T17:49:22.196Z,97295.16
2023-05-10T17:51:51.687Z,97299.38
2023-05-10T17:54:20.009Z,97297.66
2023-05-10T17:56:48.159Z,97298.97
2023-05-10T17:59:16.333Z,97300.22
2023-05-10T18:01:44.543Z,97301.47
2023-05-10T18:04:12.930Z,97290.09
2023-05-10T18:06:41.688Z,97308.47
2023-05-10T18:09:11.549Z,97304.75
2023-05-10T18:11:39.948Z,97299.41
2023-05-10T18:14:07.959Z,97305.75
2023-05-10T18:16:36.115Z,97300.28
2023-05-10T18:19:04.391Z,97316.72
2023-05-10T18:21:32.778Z,97315.16
2023-05-10T18:24:01.792Z,97308.06
2023-05-10T18:26:31.673Z,97313.63
2023-05-10T18:29:03.753Z,97309.06
2023-05-10T18:31:32.460Z,97324.47
2023-05-10T18:34:00.668Z,97316.59
2023-05-10T18:36:29.057Z,97327.94
2023-05-10T18:38:57.214Z,97331.59
2023-05-10T18:41:27.148Z,97318.38
2023-05-10T18:43:57.415Z,97331.88
2023-05-10T18:46:26.206Z,97332.22
2023-05-10T18:48:55.508Z,97330.81
2023-05-10T18:51:23.936Z,97335.81
2023-05-10T18:53:55.718Z,97338.50
2023-05-10T18:56:24.627Z,97344.19
2023-05-10T18:58:53.081Z,97341.06
2023-05-10T19:01:23.036Z,97342.44
2023-05-10T19:03:51.402Z,97348.28
2023-05-10T19:06:20.935Z,97340.66
2023-05-10T19:08:49.559Z,97353.00
2023-05-10T19:11:18.073Z,97354.38
2023-05-10T19:13:47.498Z,97360.78
2023-05-10T19:16:23.352Z,97354.38
2023-05-10T19:18:56.127Z,97370.28
2023-05-10T19:21:24.852Z,97353.31
2023-05-10T19:23:53.923Z,97370.03
2023-05-10T19:26:23.420Z,97363.97
2023-05-10T19:28:53.167Z,97362.56
2023-05-10T19:31:23.813Z,97361.25
2023-05-10T19:33:54.178Z,97369.94
2023-05-10T19:36:22.996Z,97362.31
2023-05-10T19:38:53.107Z,97362.44
2023-05-10T19:41:22.432Z,97364.38
2023-05-10T19:43:52.819Z,97356.50
2023-05-10T19:46:21.832Z,97357.00
2023-05-10T19:48:50.312Z,97366.53
2023-05-10T19:51:20.064Z,97361.94
2023-05-10T19:53:49.904Z,97354.59
2023-05-10T19:56:18.559Z,97355.66
2023-05-10T19:58:47.074Z,97363.16
2023-05-10T20:01:16.216Z,97357.09
2023-05-10T20:03:44.901Z,97364.13
2023-05-10T20:06:13.890Z,97360.72
2023-05-10T20:08:44.236Z,97344.66
2023-05-10T20:15:54.233Z,97360.03
2023-05-10T20:38:24.273Z,97372.75
2023-05-10T20:42:19.105Z,97370.34
2023-05-10T20:57:44.500Z,97369.56
2023-05-10T21:12:35.945Z,97366.78
2023-05-10T21:19:31.295Z,97358.28
2023-05-10T21:22:58.570Z,97356.47
2023-05-10T21:30:24.729Z,97356.97
2023-05-10T21:33:44.627Z,97351.88
2023-05-10T21:40:57.589Z,97356.91
2023-05-10T21:44:56.454Z,97365.16
2023-05-10T21:48:18.488Z,97360.53
2023-05-10T22:03:15.700Z,97365.06
2023-05-10T22:13:52.312Z,97363.34
2023-05-10T22:17:28.721Z,97370.38
2023-05-10T22:20:30.955Z,97366.72
2023-05-10T22:23:50.928Z,97377.59
2023-05-10T22:38:40.950Z,97367.44
2023-05-10T22:41:48.793Z,97368.13
2023-05-10T22:45:23.899Z,97368.19
2023-05-10T22:49:17.887Z,97364.59
2023-05-10T22:54:02.044Z,97371.41
2023-05-10T22:57:41.666Z,97366.94
2023-05-10T23:04:24.958Z,97370.03
2023-05-10T23:08:23.380Z,97371.63
2023-05-10T23:15:05.633Z,97368.16
2023-05-10T23:18:34.468Z,97364.03
2023-05-10T23:22:07.955Z,97369.59
2023-05-10T23:29:18.811Z,97362.78
2023-05-10T23:33:07.484Z,97368.53
2023-05-10T23:40:59.512Z,97360.91
2023-05-10T23:48:23.600Z,97346.47
2023-05-10T23:58:28.016Z,97349.88
